Time;durP1;ratioP1;P1;durP2;ratioP2;P2;SDS_P1;SDS_P2;PMS_P1;PMS_P2;Temp;Humidity;BMP_temperature;BMP_pressure;BME280_temperature;BME280_humidity;BME280_pressure;Samples;Min_cycle;Max_cycle;Signal;HPM_P1;HPM_P2
2023/06/23 00:00:26;;;;;;;15.00;11.30;;;;;;;28.22;63.76;100060.38;5074023;28;20475;-72
2023/06/23 00:02:55;;;;;;;12.55;10.35;;;;;;;28.23;64.04;100048.34;5075168;28;20056;-72
2023/06/23 00:05:24;;;;;;;13.88;11.07;;;;;;;28.21;63.60;100047.72;5075101;28;20056;-72
2023/06/23 00:07:53;;;;;;;13.68;10.35;;;;;;;28.20;63.79;100043.28;5074996;28;20132;-72
2023/06/23 00:10:23;;;;;;;15.60;10.40;;;;;;;28.21;63.66;100053.19;5075234;28;20075;-73
2023/06/23 00:12:52;;;;;;;14.45;10.95;;;;;;;28.18;64.03;100053.59;5075092;28;20409;-72
2023/06/23 00:15:22;;;;;;;13.32;10.40;;;;;;;28.15;63.92;100054.03;5074692;28;20564;-72
2023/06/23 00:17:50;;;;;;;12.30;10.00;;;;;;;28.14;64.06;100063.31;5074787;28;20072;-72
2023/06/23 00:20:19;;;;;;;13.85;10.45;;;;;;;28.15;63.71;100059.50;5074954;28;20049;-73
2023/06/23 00:22:48;;;;;;;12.30;10.43;;;;;;;28.14;63.63;100057.84;5074977;28;20044;-73
2023/06/23 00:25:16;;;;;;;13.80;10.55;;;;;;;28.10;63.88;100043.72;5074777;28;20063;-73
2023/06/23 00:27:46;;;;;;;11.55;10.38;;;;;;;28.12;63.53;100051.72;5074678;28;20391;-73
2023/06/23 00:30:15;;;;;;;13.05;10.98;;;;;;;28.13;63.64;100056.16;5074524;28;20055;-73
2023/06/23 00:32:44;;;;;;;13.07;10.75;;;;;;;28.12;63.92;100063.53;5074746;28;20056;-73
2023/06/23 00:35:13;;;;;;;11.90;10.35;;;;;;;28.11;63.58;100063.75;5074546;28;20094;-73
2023/06/23 00:37:43;;;;;;;11.63;10.32;;;;;;;28.11;63.50;100071.97;5074590;28;20131;-73
2023/06/23 00:40:15;;;;;;;12.82;10.38;;;;;;;28.08;63.50;100069.63;5074356;28;20053;-72
2023/06/23 00:42:52;;;;;;;13.25;10.63;;;;;;;28.10;63.93;100068.38;5074373;28;20482;-72
2023/06/23 00:45:22;;;;;;;12.88;10.02;;;;;;;28.11;63.75;100070.06;5074549;28;20045;-72
2023/06/23 00:47:50;;;;;;;12.52;10.48;;;;;;;28.12;63.38;100066.28;5074379;28;20044;-73
2023/06/23 00:50:21;;;;;;;11.25;10.05;;;;;;;28.12;63.80;100054.47;5074366;28;20048;-72
2023/06/23 00:52:52;;;;;;;13.85;11.10;;;;;;;28.12;63.51;100054.47;5071921;22;20078;-72
2023/06/23 00:55:26;;;;;;;12.63;10.48;;;;;;;28.07;63.82;100037.78;5025253;28;20053;-72
2023/06/23 00:57:59;;;;;;;13.38;10.70;;;;;;;28.05;63.51;100034.41;5034362;28;20103;-72
2023/06/23 01:00:29;;;;;;;12.40;10.13;;;;;;;28.03;63.79;100034.63;5034181;28;20136;-72
2023/06/23 01:03:00;;;;;;;13.93;10.27;;;;;;;28.00;63.99;100035.06;5034265;28;20278;-72
2023/06/23 01:05:34;;;;;;;11.77;10.48;;;;;;;27.98;64.02;100039.06;5034217;28;20080;-71
2023/06/23 01:08:25;;;;;;;;;;;;;;;27.95;64.11;100043.06;5034639;28;20053;-71
2023/06/23 01:11:02;;;;;;;13.88;9.65;;;;;;;27.92;64.33;100027.88;5034244;28;19921;-71
2023/06/23 01:13:39;;;;;;;12.65;10.52;;;;;;;27.87;64.14;100030.41;5034001;28;20049;-72
2023/06/23 01:16:16;;;;;;;12.35;10.27;;;;;;;27.85;64.15;100038.00;5033793;28;20052;-72
2023/06/23 01:18:54;;;;;;;11.90;10.02;;;;;;;27.86;64.58;100036.09;5033924;28;20379;-72
2023/06/23 01:21:31;;;;;;;13.98;10.48;;;;;;;27.80;64.37;100035.06;5033719;28;20053;-71
2023/06/23 01:24:17;;;;;;;12.45;10.55;;;;;;;27.80;64.27;100034.22;5033808;28;20053;-72
2023/06/23 01:27:05;;;;;;;12.77;10.23;;;;;;;27.79;64.08;100021.53;5033699;28;20239;-73
2023/06/23 01:29:39;;;;;;;13.77;10.45;;;;;;;27.77;64.21;100024.50;5033729;28;20552;-73
2023/06/23 01:32:18;;;;;;;14.63;10.70;;;;;;;27.79;64.03;100021.53;5033686;28;20073;-73
2023/06/23 01:34:53;;;;;;;11.98;9.80;;;;;;;27.79;64.14;100027.88;5033858;28;20045;-72
2023/06/23 01:37:26;;;;;;;11.43;10.20;;;;;;;27.78;64.33;100015.22;5033498;28;20128;-73
2023/06/23 01:40:00;;;;;;;14.80;10.30;;;;;;;27.79;64.10;100005.09;5033625;28;20115;-72
2023/06/23 01:42:35;;;;;;;11.90;9.60;;;;;;;27.78;64.10;100015.22;5033422;28;20041;-72
2023/06/23 01:45:08;;;;;;;11.95;9.82;;;;;;;27.80;64.20;100017.78;5033308;28;20068;-72
2023/06/23 01:47:41;;;;;;;11.98;10.15;;;;;;;27.81;64.10;100028.53;5033214;28;20049;-72
2023/06/23 01:50:13;;;;;;;12.65;10.15;;;;;;;27.83;64.33;100033.78;5033543;28;20047;-72
2023/06/23 01:52:44;;;;;;;12.98;10.25;;;;;;;27.84;64.43;100036.31;5033250;28;20132;-73
2023/06/23 01:55:15;;;;;;;12.88;9.02;;;;;;;27.85;63.95;100043.47;5033272;28;20092;-73
2023/06/23 01:57:46;;;;;;;12.52;9.85;;;;;;;27.85;64.28;100059.09;5033203;28;20053;-73
2023/06/23 02:00:21;;;;;;;13.10;10.10;;;;;;;27.85;64.01;100054.44;5032972;28;20052;-73
2023/06/23 02:02:53;;;;;;;11.65;10.18;;;;;;;27.86;64.01;100064.34;5033235;28;20080;-72
2023/06/23 02:05:27;;;;;;;12.13;9.90;;;;;;;27.86;64.14;100056.13;5033199;28;20045;-73
2023/06/23 02:08:02;;;;;;;14.48;10.35;;;;;;;27.86;63.59;100058.88;5032918;28;20045;-72
2023/06/23 02:10:32;;;;;;;13.25;10.43;;;;;;;27.85;63.54;100054.44;5032328;28;20091;-72
2023/06/23 02:13:01;;;;;;;12.60;10.75;;;;;;;27.85;63.88;100059.94;5032884;28;20072;-72
2023/06/23 02:15:41;;;;;;;14.40;9.82;;;;;;;27.83;63.77;100062.03;5032903;28;20045;-72
2023/06/23 02:18:12;;;;;;;11.57;9.75;;;;;;;27.83;64.08;100067.53;5032960;28;20045;-72
2023/06/23 02:20:43;;;;;;;16.60;10.00;;;;;;;27.82;63.74;100063.09;5032759;28;20048;-72
2023/06/23 02:23:14;;;;;;;11.07;9.57;;;;;;;27.83;63.63;100062.03;5032720;28;20504;-72
2023/06/23 02:25:45;;;;;;;12.50;9.65;;;;;;;27.82;64.08;100052.13;5032908;28;20402;-72
2023/06/23 02:28:14;;;;;;;10.88;9.35;;;;;;;27.81;63.92;100052.34;5032733;28;20045;-72
2023/06/23 02:30:47;;;;;;;12.85;10.38;;;;;;;27.80;63.64;100046.03;5032434;28;20501;-72
2023/06/23 02:33:16;;;;;;;12.00;9.70;;;;;;;27.77;63.84;100040.94;5032524;28;20041;-72
2023/06/23 02:35:46;;;;;;;15.65;10.60;;;;;;;27.74;64.33;100052.31;5032236;28;20490;-72
2023/06/23 02:38:21;;;;;;;13.82;10.52;;;;;;;27.71;64.87;100051.91;5032568;28;20092;-72
2023/06/23 02:40:54;;;;;;;13.68;11.25;;;;;;;27.67;64.46;100051.47;5032349;28;20419;-72
2023/06/23 02:43:29;;;;;;;15.48;11.18;;;;;;;27.62;65.28;100043.00;5032302;28;20103;-72
2023/06/23 02:46:04;;;;;;;12.40;10.65;;;;;;;27.57;65.08;100045.50;5032158;28;20049;-72
2023/06/23 02:48:39;;;;;;;13.73;10.60;;;;;;;27.54;65.12;100043.19;5032192;28;20553;-72
2023/06/23 02:51:14;;;;;;;14.95;10.30;;;;;;;27.52;65.71;100043.41;5032385;28;20049;-72
2023/06/23 02:53:46;;;;;;;12.55;10.75;;;;;;;27.54;65.08;100034.97;5032237;28;20045;-73
2023/06/23 02:56:19;;;;;;;11.70;10.50;;;;;;;27.53;65.05;100033.28;5032034;28;20060;-73
2023/06/23 02:58:52;;;;;;;12.30;10.48;;;;;;;27.54;65.55;100034.97;5031841;28;20104;-72
2023/06/23 03:01:26;;;;;;;12.65;10.60;;;;;;;27.53;65.19;100034.13;5032044;28;20144;-72
2023/06/23 03:03:56;;;;;;;13.57;10.20;;;;;;;27.52;65.02;100031.59;5031881;28;20095;-72
2023/06/23 03:06:34;;;;;;;14.23;10.95;;;;;;;27.52;65.50;100023.41;5031827;28;20052;-73
2023/06/23 03:09:06;;;;;;;10.80;9.63;;;;;;;27.52;65.49;100026.13;5031876;28;20469;-72
2023/06/23 03:11:35;;;;;;;13.60;10.60;;;;;;;27.52;65.46;100031.59;5031992;28;20547;-73
2023/06/23 03:14:05;;;;;;;12.52;10.65;;;;;;;27.50;64.98;100034.53;5032101;28;20684;-72
2023/06/23 03:16:43;;;;;;;15.95;10.88;;;;;;;27.50;65.17;100047.38;5031631;28;20045;-72
2023/06/23 03:19:20;;;;;;;14.10;10.70;;;;;;;27.46;65.44;100044.22;5031684;28;20052;-72
2023/06/23 03:21:59;;;;;;;16.05;10.85;;;;;;;27.43;65.28;100044.66;5030604;28;20136;-72
2023/06/23 03:24:31;;;;;;;14.77;10.82;;;;;;;27.39;65.48;100048.84;5031789;28;20045;-72
2023/06/23 03:27:06;;;;;;;14.27;10.90;;;;;;;27.36;66.04;100055.56;5031588;28;20045;-72
2023/06/23 03:29:44;;;;;;;12.73;10.30;;;;;;;27.34;65.88;100057.69;5031654;28;20414;-72
2023/06/23 03:32:23;;;;;;;15.30;11.55;;;;;;;27.30;65.94;100061.88;5031433;28;20406;-72
2023/06/23 03:35:04;;;;;;;15.05;11.27;;;;;;;27.27;66.28;100066.91;5031685;28;20068;-72
2023/06/23 03:37:41;;;;;;;14.65;11.00;;;;;;;27.28;66.01;100071.34;5031644;28;20045;-72
2023/06/23 03:40:14;;;;;;;15.35;11.23;;;;;;;27.29;65.76;100076.59;5031500;28;20056;-72
2023/06/23 03:42:53;;;;;;;13.50;10.88;;;;;;;27.30;65.95;100082.94;5031264;28;20132;-72
2023/06/23 03:45:24;;;;;;;14.13;11.23;;;;;;;27.31;66.31;100074.53;5031451;28;20045;-72
2023/06/23 03:48:02;;;;;;;13.60;10.45;;;;;;;27.33;66.37;100074.31;5031565;28;20045;-72
2023/06/23 03:50:34;;;;;;;13.43;10.55;;;;;;;27.31;66.17;100066.31;5031398;28;20045;-72
2023/06/23 03:53:14;;;;;;;13.63;10.90;;;;;;;27.32;65.63;100064.44;5031179;28;20057;-73
2023/06/23 03:55:44;;;;;;;11.90;10.63;;;;;;;27.33;66.11;100064.22;5031556;28;20405;-72
2023/06/23 03:58:16;;;;;;;14.00;10.32;;;;;;;27.34;66.03;100068.63;5031280;28;20084;-72
2023/06/23 04:00:48;;;;;;;12.45;10.18;;;;;;;27.35;65.56;100073.06;5031276;28;20401;-72
2023/06/23 04:03:23;;;;;;;12.93;10.98;;;;;;;27.36;66.15;100082.97;5031136;28;20059;-72
2023/06/23 04:06:05;;;;;;;11.30;10.10;;;;;;;27.34;66.29;100086.97;5031365;28;20045;-72
2023/06/23 04:08:40;;;;;;;12.45;10.48;;;;;;;27.31;66.40;100085.50;5031173;28;20081;-72
2023/06/23 04:11:13;;;;;;;12.68;10.98;;;;;;;27.32;65.95;100086.34;5030894;28;20137;-72
2023/06/23 04:13:45;;;;;;;;;;;;;;;27.32;66.28;100092.66;5031270;28;20061;-72
2023/06/23 04:16:24;;;;;;;13.13;10.60;;;;;;;27.34;66.30;100084.22;5031017;28;19921;-72
2023/06/23 04:19:16;;;;;;;13.02;10.75;;;;;;;27.35;65.48;100086.75;5016055;28;20501;-72
2023/06/23 04:21:48;;;;;;;14.80;10.80;;;;;;;27.36;66.02;100079.38;5030367;28;20053;-72
2023/06/23 04:24:30;;;;;;;13.63;10.63;;;;;;;27.37;65.74;100081.91;5030444;28;20111;-72
2023/06/23 04:27:02;;;;;;;12.52;10.40;;;;;;;27.37;65.46;100079.16;5030739;28;20053;-72
2023/06/23 04:29:33;;;;;;;13.13;10.40;;;;;;;27.37;65.50;100084.66;5030735;28;20096;-72
2023/06/23 04:32:14;;;;;;;13.25;10.00;;;;;;;27.37;65.49;100073.69;5031675;28;20047;-72
2023/06/23 04:34:52;;;;;;;12.27;9.63;;;;;;;27.37;65.85;100068.22;5034175;28;20049;-72
2023/06/23 04:37:40;;;;;;;12.43;9.75;;;;;;;27.38;65.47;100082.75;5034451;28;20462;-71
2023/06/23 04:40:18;;;;;;;11.85;10.18;;;;;;;27.37;65.34;100087.38;5017388;28;20092;-72
2023/06/23 04:43:00;;;;;;;13.30;9.82;;;;;;;27.38;65.40;100089.06;5034118;28;20477;-72
2023/06/23 04:45:33;;;;;;;12.05;9.40;;;;;;;27.38;65.21;100078.13;5034083;28;20053;-72
2023/06/23 04:48:09;;;;;;;12.50;9.82;;;;;;;27.39;65.29;100068.84;5034262;28;20072;-72
2023/06/23 04:50:41;;;;;;;12.93;9.88;;;;;;;27.41;65.47;100056.84;5034295;28;20042;-72
2023/06/23 04:53:17;;;;;;;13.38;10.02;;;;;;;27.41;65.80;100062.31;5034046;28;20063;-72
2023/06/23 04:55:58;;;;;;;12.48;9.77;;;;;;;27.42;65.78;100064.03;5033959;28;20150;-72
2023/06/23 04:58:30;;;;;;;11.98;9.80;;;;;;;27.40;65.71;100061.47;5034189;28;20115;-73
2023/06/23 05:00:59;;;;;;;13.35;9.70;;;;;;;27.39;65.45;100063.38;5034131;28;20088;-72
2023/06/23 05:03:39;;;;;;;12.13;9.60;;;;;;;27.39;64.93;100059.78;5033917;28;20060;-72
2023/06/23 05:06:12;;;;;;;12.13;9.75;;;;;;;27.35;64.90;100056.63;5033933;28;20057;-71
2023/06/23 05:08:45;;;;;;;11.90;9.57;;;;;;;27.32;64.54;100051.56;5033622;28;20041;-72
2023/06/23 05:11:18;;;;;;;11.43;9.35;;;;;;;27.33;64.72;100055.16;5033957;28;20045;-73
2023/06/23 05:13:49;;;;;;;11.98;9.60;;;;;;;27.35;65.30;100062.09;5033909;28;20045;-73
2023/06/23 05:16:21;;;;;;;15.90;9.48;;;;;;;27.37;65.49;100057.25;5033877;28;20049;-72
2023/06/23 05:18:59;;;;;;;12.38;9.85;;;;;;;27.35;64.79;100064.84;5033555;28;20048;-73
2023/06/23 05:21:35;;;;;;;11.45;9.93;;;;;;;27.37;64.93;100070.13;5033865;28;20045;-73
2023/06/23 05:24:26;;;;;;;11.25;9.70;;;;;;;27.39;65.26;100070.75;5018767;28;20057;-74
2023/06/23 05:27:00;;;;;;;17.17;9.23;;;;;;;27.39;65.07;100060.63;5033578;28;20049;-73
2023/06/23 05:29:35;;;;;;;12.55;9.20;;;;;;;27.37;64.98;100062.75;5033488;28;20061;-72
2023/06/23 05:32:10;;;;;;;12.95;9.13;;;;;;;27.37;64.66;100068.22;5033042;28;20574;-72
2023/06/23 05:34:38;;;;;;;;;;;;;;;27.38;65.04;100080.84;5034116;28;20042;-72
2023/06/23 05:37:15;;;;;;;14.10;9.52;;;;;;;27.41;65.19;100065.06;5029579;28;19925;-72
2023/06/23 05:39:54;;;;;;;13.45;9.25;;;;;;;27.43;65.31;100071.19;5031599;28;20046;-71
2023/06/23 05:42:25;;;;;;;13.85;10.02;;;;;;;27.41;65.22;100056.84;5030581;28;20049;-71
2023/06/23 05:44:54;;;;;;;11.52;9.40;;;;;;;27.38;64.77;100067.16;5032396;28;20180;-72
2023/06/23 05:47:27;;;;;;;12.88;9.30;;;;;;;27.39;64.71;100071.59;5033025;28;20486;-72
2023/06/23 05:50:12;;;;;;;13.63;10.52;;;;;;;27.38;64.98;100067.16;5031341;28;20507;-72
2023/06/23 05:52:56;;;;;;;13.00;9.27;;;;;;;27.40;64.97;100061.47;5031245;28;20057;-71
2023/06/23 05:55:32;;;;;;;14.55;9.73;;;;;;;27.39;65.38;100065.25;5031175;28;20052;-72
2023/06/23 05:58:13;;;;;;;13.27;9.75;;;;;;;27.41;65.40;100063.19;5031021;28;20473;-71
2023/06/23 06:00:53;;;;;;;15.00;9.73;;;;;;;27.41;65.13;100070.53;5031051;28;20046;-71
2023/06/23 06:03:37;;;;;;;17.80;10.18;;;;;;;27.39;65.68;100052.41;5030956;28;20137;-72
2023/06/23 06:06:12;;;;;;;14.75;10.60;;;;;;;27.38;65.59;100063.59;5031278;28;20077;-70
2023/06/23 06:08:46;;;;;;;14.35;10.52;;;;;;;27.39;65.51;100048.84;5030326;28;20077;-70
2023/06/23 06:11:17;;;;;;;13.80;9.82;;;;;;;27.43;65.43;100043.81;5032254;28;20052;-71
2023/06/23 06:14:03;;;;;;;13.63;10.18;;;;;;;27.44;65.67;100040.00;5030601;28;20057;-72
2023/06/23 06:16:52;;;;;;;15.45;10.90;;;;;;;27.44;65.71;100043.59;5032862;28;20056;-71
2023/06/23 06:19:25;;;;;;;15.82;10.35;;;;;;;27.45;65.71;100041.69;5032417;28;20494;-72
2023/06/23 06:22:00;;;;;;;15.82;10.43;;;;;;;27.44;65.29;100035.38;5032323;28;20047;-72
2023/06/23 06:24:35;;;;;;;14.52;10.43;;;;;;;27.44;65.30;100023.59;5032221;28;20136;-68
2023/06/23 06:27:24;;;;;;;14.02;10.48;;;;;;;27.45;65.80;100014.31;5032508;28;20046;-72
2023/06/23 06:29:59;;;;;;;13.95;10.63;;;;;;;27.47;66.21;100014.94;5032086;28;20486;-70
2023/06/23 06:32:33;;;;;;;19.65;11.77;;;;;;;27.47;66.25;100017.69;5032756;28;20049;-72
2023/06/23 06:35:16;;;;;;;15.55;11.60;;;;;;;27.46;66.09;100016.00;5032106;28;20175;-71
2023/06/23 06:37:51;;;;;;;17.05;11.00;;;;;;;27.46;66.21;100021.47;5029951;28;20037;-72
2023/06/23 06:40:27;;;;;;;16.13;11.55;;;;;;;27.49;66.59;100015.56;5029598;28;20049;-73
2023/06/23 06:42:56;;;;;;;15.40;11.45;;;;;;;27.52;67.20;100016.03;5031725;28;20582;-73
2023/06/23 06:45:27;;;;;;;15.98;11.75;;;;;;;27.55;66.36;100012.00;5032010;28;20042;-73
2023/06/23 06:48:01;;;;;;;17.15;12.18;;;;;;;27.54;66.05;100019.38;5031589;28;20060;-72
2023/06/23 06:50:31;;;;;;;16.20;11.18;;;;;;;27.57;66.47;100018.13;5031889;28;20103;-72
2023/06/23 06:53:01;;;;;;;19.55;11.90;;;;;;;27.61;66.72;100005.72;5032040;28;20481;-72
2023/06/23 06:55:32;;;;;;;16.77;11.70;;;;;;;27.64;66.52;100008.03;5032088;28;20048;-72
2023/06/23 06:58:19;;;;;;;13.73;11.10;;;;;;;27.67;66.80;100007.63;5026728;28;20402;-73
2023/06/23 07:00:50;;;;;;;18.63;11.77;;;;;;;27.69;66.77;100013.72;5022041;28;20041;-73
2023/06/23 07:03:27;;;;;;;16.60;12.20;;;;;;;27.69;66.08;100008.25;5030513;28;20041;-71
2023/06/23 07:05:56;;;;;;;15.20;11.63;;;;;;;27.71;66.00;100002.59;5031115;28;20107;-71
2023/06/23 07:08:29;;;;;;;15.23;12.75;;;;;;;27.71;66.48;100008.91;5031210;28;20045;-71
2023/06/23 07:11:02;;;;;;;15.38;11.68;;;;;;;27.72;66.19;100007.84;5031584;28;20167;-70
2023/06/23 07:13:32;;;;;;;15.32;11.65;;;;;;;27.75;66.49;100009.31;5031754;28;20083;-71
2023/06/23 07:16:04;;;;;;;16.35;12.30;;;;;;;27.77;66.49;100004.47;5031503;28;20100;-71
2023/06/23 07:18:34;;;;;;;16.70;11.93;;;;;;;27.78;66.45;100007.00;5031750;28;20117;-70
2023/06/23 07:21:12;;;;;;;15.05;12.30;;;;;;;27.81;66.53;100009.34;5031772;28;20041;-71
2023/06/23 07:23:46;;;;;;;14.63;12.48;;;;;;;27.83;66.15;100003.66;5031448;28;20128;-71
2023/06/23 07:26:29;;;;;;;18.13;12.05;;;;;;;27.85;66.03;100001.53;5031271;28;20050;-70
2023/06/23 07:29:08;;;;;;;17.17;13.50;;;;;;;27.85;66.50;100005.13;5031822;28;20089;-71
2023/06/23 07:31:41;;;;;;;16.10;12.90;;;;;;;27.85;66.30;100005.13;5031246;28;20139;-71
2023/06/23 07:34:09;;;;;;;15.48;13.00;;;;;;;27.85;66.61;100010.59;5031459;28;20053;-71
2023/06/23 07:36:52;;;;;;;;;;;;;;;27.87;66.60;100013.13;5031721;28;20041;-71
2023/06/23 07:39:25;;;;;;;;;;;;;;;27.89;66.60;100014.63;5031841;28;19921;-71
2023/06/23 07:42:02;;;;;;;18.15;13.20;;;;;;;27.92;66.04;100008.69;5031526;28;19921;-71
2023/06/23 07:44:33;;;;;;;21.90;12.45;;;;;;;27.93;66.35;100013.13;5031135;28;20049;-70
2023/06/23 07:47:05;;;;;;;17.98;13.13;;;;;;;27.96;66.55;100000.88;5031638;28;20085;-70
2023/06/23 07:49:36;;;;;;;18.23;13.30;;;;;;;27.98;66.57;99997.94;5031135;28;20046;-71
2023/06/23 07:52:15;;;;;;;19.25;12.88;;;;;;;28.02;66.55;99999.22;5031384;28;20049;-71
2023/06/23 07:54:48;;;;;;;16.65;13.25;;;;;;;28.04;66.26;99997.09;5031278;28;20077;-71
2023/06/23 07:57:21;;;;;;;15.30;12.60;;;;;;;28.05;66.19;100005.09;5031154;28;20080;-72
2023/06/23 07:59:50;;;;;;;16.88;13.40;;;;;;;28.07;66.32;99996.66;5030956;28;20046;-71
2023/06/23 08:02:26;;;;;;;15.27;13.02;;;;;;;28.10;65.96;99996.25;5031107;28;20068;-71
2023/06/23 08:04:57;;;;;;;15.07;13.32;;;;;;;28.12;66.27;99994.16;5030830;28;20084;-71
2023/06/23 08:07:28;;;;;;;15.75;12.88;;;;;;;28.13;66.46;99985.69;5032550;28;20046;-71
2023/06/23 08:10:21;;;;;;;15.07;12.07;;;;;;;28.15;66.45;99986.31;5020515;28;20123;-71
2023/06/23 08:13:10;;;;;;;15.38;13.02;;;;;;;28.18;65.86;99990.53;5020483;28;20053;-71
2023/06/23 08:15:41;;;;;;;17.13;13.20;;;;;;;28.20;66.02;99982.97;5035275;28;20084;-71
2023/06/23 08:18:10;;;;;;;17.75;13.63;;;;;;;28.23;65.99;99991.59;5035082;28;20049;-71
2023/06/23 08:20:41;;;;;;;18.90;14.43;;;;;;;28.25;65.95;99985.88;5034958;28;20440;-71
2023/06/23 08:23:11;;;;;;;16.50;13.82;;;;;;;28.27;65.99;99981.03;5035096;28;20099;-71
2023/06/23 08:25:42;;;;;;;18.17;13.80;;;;;;;28.30;65.60;99986.13;5034882;28;20049;-71
2023/06/23 08:28:30;;;;;;;19.17;13.82;;;;;;;28.33;66.03;99991.19;5034793;28;20057;-71
2023/06/23 08:30:58;;;;;;;17.30;13.88;;;;;;;28.35;65.76;99993.72;5034675;28;20050;-71
2023/06/23 08:33:28;;;;;;;15.57;13.07;;;;;;;28.37;65.57;99986.94;5034451;28;20054;-71
2023/06/23 08:35:58;;;;;;;17.33;14.25;;;;;;;28.39;65.79;99979.38;5034622;28;20281;-71
2023/06/23 08:38:30;;;;;;;17.48;14.13;;;;;;;28.42;65.64;99978.09;5034617;28;20128;-71
2023/06/23 08:41:01;;;;;;;16.65;14.18;;;;;;;28.43;65.74;99972.38;5034527;28;20049;-71
2023/06/23 08:43:38;;;;;;;21.15;14.75;;;;;;;28.46;65.63;99974.69;5034557;28;20056;-70
2023/06/23 08:46:14;;;;;;;19.25;14.38;;;;;;;28.47;65.52;99979.13;5034428;28;20378;-70
2023/06/23 08:48:47;;;;;;;18.77;13.48;;;;;;;28.49;65.41;99970.69;5034358;28;20130;-70
2023/06/23 08:51:23;;;;;;;17.10;13.68;;;;;;;28.51;65.13;99988.63;5034223;28;20045;-70
2023/06/23 08:53:59;;;;;;;18.35;13.65;;;;;;;28.54;65.38;99981.84;5034303;28;20041;-70
2023/06/23 08:56:29;;;;;;;15.73;13.43;;;;;;;28.55;65.10;99986.28;5034183;28;20136;-69
2023/06/23 08:59:02;;;;;;;15.93;14.10;;;;;;;28.58;65.37;99979.53;5034453;28;20099;-70
2023/06/23 09:01:33;;;;;;;15.45;13.77;;;;;;;28.60;64.83;99980.16;5034344;28;20049;-71
2023/06/23 09:04:04;;;;;;;16.35;14.20;;;;;;;28.62;64.77;99975.28;5034144;28;20053;-71
2023/06/23 09:06:38;;;;;;;19.20;15.05;;;;;;;28.64;65.18;99987.72;5034040;28;20132;-71
2023/06/23 09:09:08;;;;;;;17.85;14.57;;;;;;;28.69;65.13;99987.09;5034149;28;20115;-71
2023/06/23 09:11:38;;;;;;;18.38;14.90;;;;;;;28.70;64.87;99984.13;5034241;28;20049;-70
2023/06/23 09:14:11;;;;;;;18.70;14.38;;;;;;;28.73;65.09;99991.06;5034006;28;20461;-71
2023/06/23 09:16:40;;;;;;;;;;;;;;;28.74;64.88;99992.75;5034441;28;20049;-71
2023/06/23 09:19:10;;;;;;;20.27;15.18;;;;;;;28.75;64.97;99989.78;5032445;28;20393;-70
2023/06/23 09:21:38;;;;;;;19.27;15.48;;;;;;;28.78;64.79;99991.28;5033892;28;20045;-71
2023/06/23 09:24:08;;;;;;;17.85;14.18;;;;;;;28.79;64.91;99984.72;5033961;28;20335;-71
2023/06/23 09:26:47;;;;;;;18.10;13.73;;;;;;;28.80;64.69;99984.50;5033762;28;20413;-71
2023/06/23 09:29:19;;;;;;;15.23;13.55;;;;;;;28.82;64.42;99987.03;5033770;28;20046;-71
2023/06/23 09:31:49;;;;;;;16.27;14.57;;;;;;;28.82;64.58;99981.53;5033567;28;20081;-71
2023/06/23 09:34:22;;;;;;;17.80;14.52;;;;;;;28.86;64.44;99991.03;5033394;28;20045;-69
2023/06/23 09:36:52;;;;;;;21.45;14.82;;;;;;;28.89;64.64;99987.03;5033460;28;20076;-71
2023/06/23 09:39:21;;;;;;;19.40;15.75;;;;;;;28.91;64.36;99985.75;5033669;28;20132;-69
2023/06/23 09:41:55;;;;;;;18.00;14.15;;;;;;;28.94;64.50;99988.06;5034591;28;20049;-71
2023/06/23 09:44:34;;;;;;;19.13;14.55;;;;;;;28.95;64.34;99984.28;5033079;28;20049;-70
2023/06/23 09:47:03;;;;;;;15.50;13.63;;;;;;;28.97;64.28;99995.88;5033517;28;20053;-70
2023/06/23 09:49:39;;;;;;;18.77;15.10;;;;;;;29.00;64.39;100000.91;5033302;28;20135;-71
2023/06/23 09:52:08;;;;;;;16.73;14.57;;;;;;;29.02;64.59;100001.53;5033050;28;20061;-71
2023/06/23 09:54:39;;;;;;;19.70;15.88;;;;;;;29.05;64.31;99998.38;5032978;28;20379;-71
2023/06/23 09:57:09;;;;;;;21.15;14.57;;;;;;;29.09;64.40;99996.03;5033565;28;20099;-71
2023/06/23 09:59:40;;;;;;;19.77;15.73;;;;;;;29.12;64.02;99994.72;5033214;28;20053;-71
2023/06/23 10:02:21;;;;;;;21.70;16.15;;;;;;;29.14;64.06;100009.06;5033232;28;20132;-71
2023/06/23 10:04:50;;;;;;;19.85;15.57;;;;;;;29.16;64.04;100007.81;5032889;28;20045;-71
2023/06/23 10:07:21;;;;;;;17.40;14.82;;;;;;;29.18;63.75;100000.19;5032758;28;20053;-71
2023/06/23 10:09:50;;;;;;;19.35;14.70;;;;;;;29.19;63.58;100001.88;5032631;28;20049;-71
2023/06/23 10:12:22;;;;;;;18.75;15.10;;;;;;;29.22;63.73;100008.84;5032880;28;20053;-71
2023/06/23 10:14:53;;;;;;;18.58;15.23;;;;;;;29.24;63.56;100002.06;5032703;28;20049;-71
2023/06/23 10:17:22;;;;;;;20.00;14.98;;;;;;;29.27;63.17;100001.63;5032648;28;20133;-70
2023/06/23 10:19:51;;;;;;;18.60;14.77;;;;;;;29.31;62.85;99999.28;5032686;28;20057;-72
2023/06/23 10:22:21;;;;;;;20.77;14.80;;;;;;;29.33;62.56;99997.13;5032899;28;20060;-72
2023/06/23 10:24:53;;;;;;;21.13;15.07;;;;;;;29.35;62.27;99986.81;5032651;28;20107;-71
2023/06/23 10:27:24;;;;;;;19.27;14.48;;;;;;;29.38;62.01;99983.59;5032695;28;20046;-71
2023/06/23 10:29:56;;;;;;;20.67;13.77;;;;;;;29.43;61.49;99996.66;5032159;28;20414;-71
2023/06/23 10:32:28;;;;;;;16.93;13.07;;;;;;;29.45;61.35;99989.91;5032406;28;20076;-70
2023/06/23 10:34:59;;;;;;;19.45;13.80;;;;;;;29.48;61.32;99986.72;5032493;28;20695;-71
2023/06/23 10:37:28;;;;;;;19.48;13.75;;;;;;;29.51;60.92;99982.69;5032368;28;20490;-71
2023/06/23 10:40:13;;;;;;;17.40;13.07;;;;;;;29.52;61.04;99990.72;5032586;28;20045;-70
2023/06/23 10:42:46;;;;;;;19.80;13.65;;;;;;;29.56;60.99;99986.47;5032314;28;20071;-70
2023/06/23 10:45:16;;;;;;;17.63;12.82;;;;;;;29.56;60.69;99980.97;5032004;28;20516;-71
2023/06/23 10:47:45;;;;;;;17.00;13.30;;;;;;;29.58;60.89;99983.50;5032407;28;20387;-71
2023/06/23 10:50:15;;;;;;;18.95;13.48;;;;;;;29.60;60.80;99976.72;5032483;28;20080;-71
2023/06/23 10:52:43;;;;;;;16.65;12.70;;;;;;;29.60;60.99;99982.19;5032174;28;20108;-71
2023/06/23 10:55:51;;;;;;;19.48;13.80;;;;;;;29.62;61.18;99977.31;5032043;28;20128;-71
2023/06/23 10:58:27;;;;;;;14.80;12.43;;;;;;;29.65;60.90;99967.81;5029143;28;20051;-71
2023/06/23 11:01:01;;;;;;;18.55;12.77;;;;;;;29.65;61.17;99962.31;5031951;28;20497;-72
2023/06/23 11:03:30;;;;;;;16.98;13.68;;;;;;;29.67;60.88;99957.44;5032734;28;20128;-70
2023/06/23 11:06:00;;;;;;;16.50;13.10;;;;;;;29.69;60.99;99959.94;5031811;28;20085;-69
2023/06/23 11:08:31;;;;;;;15.30;11.77;;;;;;;29.70;61.12;99954.22;5031848;28;20052;-72
2023/06/23 11:11:10;;;;;;;13.02;11.48;;;;;;;29.72;61.08;99951.25;5031923;28;20053;-71
2023/06/23 11:13:43;;;;;;;14.75;11.80;;;;;;;29.75;61.20;99945.31;5031610;28;20144;-72
2023/06/23 11:16:19;;;;;;;14.73;12.23;;;;;;;29.75;61.09;99940.66;5031579;28;20057;-72
2023/06/23 11:18:52;;;;;;;15.25;12.20;;;;;;;29.77;60.98;99943.19;5031315;28;20498;-71
2023/06/23 11:21:33;;;;;;;15.52;12.45;;;;;;;29.78;61.07;99945.69;5031556;28;20441;-71
2023/06/23 11:24:16;;;;;;;16.33;12.63;;;;;;;29.80;61.12;99948.22;5031619;28;20081;-69
2023/06/23 11:26:46;;;;;;;15.60;12.52;;;;;;;29.82;60.91;99946.06;5031332;28;20061;-70
2023/06/23 11:29:16;;;;;;;14.23;12.13;;;;;;;29.83;61.19;99939.53;5031640;28;20084;-70
2023/06/23 11:32:05;;;;;;;14.57;12.73;;;;;;;29.85;61.14;99930.00;5031496;28;20478;-71
2023/06/23 11:35:06;;;;;;;13.45;12.05;;;;;;;29.87;60.91;99932.50;5031450;28;20061;-71
2023/06/23 11:37:34;;;;;;;14.73;12.30;;;;;;;29.92;60.89;99938.19;5031343;28;20049;-71
2023/06/23 11:40:05;;;;;;;14.23;12.40;;;;;;;29.94;60.85;99941.56;5031381;28;20459;-71
2023/06/23 11:42:34;;;;;;;16.65;12.63;;;;;;;29.96;60.59;99933.91;5030287;28;20503;-71
2023/06/23 11:45:03;;;;;;;14.40;12.40;;;;;;;29.97;60.81;99926.50;5031110;28;20049;-71